sensor_id;sensor_type;location;lat;lon;timestamp;P1;durP1;ratioP1;P2;durP2;ratioP2
10088;SDS011;51898;49.864;8.550;2023-08-20T00:01:11;9.73;;;6.40;;
10088;SDS011;51898;49.864;8.550;2023-08-20T00:04:15;9.03;;;7.27;;
10088;SDS011;51898;49.864;8.550;2023-08-20T00:07:18;11.87;;;7.00;;
10088;SDS011;51898;49.864;8.550;2023-08-20T00:10:20;8.70;;;7.10;;
10088;SDS011;51898;49.864;8.550;2023-08-20T00:13:21;7.30;;;6.10;;
10088;SDS011;51898;49.864;8.550;2023-08-20T00:16:23;8.10;;;6.80;;
10088;SDS011;51898;49.864;8.550;2023-08-20T00:19:25;8.13;;;7.30;;
10088;SDS011;51898;49.864;8.550;2023-08-20T00:22:27;9.47;;;7.73;;
10088;SDS011;51898;49.864;8.550;2023-08-20T00:25:29;7.97;;;6.90;;
10088;SDS011;51898;49.864;8.550;2023-08-20T00:28:31;7.90;;;7.17;;
10088;SDS011;51898;49.864;8.550;2023-08-20T00:31:35;10.20;;;7.97;;
10088;SDS011;51898;49.864;8.550;2023-08-20T00:34:37;8.33;;;7.10;;
10088;SDS011;51898;49.864;8.550;2023-08-20T00:37:38;11.53;;;6.63;;
10088;SDS011;51898;49.864;8.550;2023-08-20T00:40:40;9.73;;;7.10;;
10088;SDS011;51898;49.864;8.550;2023-08-20T00:43:42;7.97;;;7.17;;
10088;SDS011;51898;49.864;8.550;2023-08-20T00:46:43;10.93;;;8.50;;
10088;SDS011;51898;49.864;8.550;2023-08-20T00:49:45;10.73;;;7.30;;
10088;SDS011;51898;49.864;8.550;2023-08-20T00:52:48;8.97;;;7.10;;
10088;SDS011;51898;49.864;8.550;2023-08-20T00:55:50;10.00;;;7.60;;
10088;SDS011;51898;49.864;8.550;2023-08-20T00:58:52;11.30;;;7.40;;
10088;SDS011;51898;49.864;8.550;2023-08-20T01:01:55;8.33;;;7.53;;
10088;SDS011;51898;49.864;8.550;2023-08-20T01:04:57;10.40;;;7.50;;
10088;SDS011;51898;49.864;8.550;2023-08-20T01:11:45;10.33;;;7.60;;
10088;SDS011;51898;49.864;8.550;2023-08-20T01:14:56;10.03;;;8.03;;
10088;SDS011;51898;49.864;8.550;2023-08-20T01:18:00;11.43;;;8.10;;
10088;SDS011;51898;49.864;8.550;2023-08-20T01:21:03;9.63;;;8.33;;
10088;SDS011;51898;49.864;8.550;2023-08-20T01:24:16;8.87;;;8.03;;
10088;SDS011;51898;49.864;8.550;2023-08-20T01:30:58;8.30;;;7.50;;
10088;SDS011;51898;49.864;8.550;2023-08-20T01:34:02;8.73;;;7.47;;
10088;SDS011;51898;49.864;8.550;2023-08-20T01:37:04;9.07;;;7.77;;
10088;SDS011;51898;49.864;8.550;2023-08-20T01:40:07;9.30;;;8.23;;
10088;SDS011;51898;49.864;8.550;2023-08-20T01:43:12;9.80;;;8.20;;
10088;SDS011;51898;49.864;8.550;2023-08-20T01:46:14;10.20;;;8.00;;
10088;SDS011;51898;49.864;8.550;2023-08-20T01:49:16;8.33;;;7.50;;
10088;SDS011;51898;49.864;8.550;2023-08-20T01:52:17;10.83;;;8.60;;
10088;SDS011;51898;49.864;8.550;2023-08-20T01:55:19;9.10;;;8.20;;
10088;SDS011;51898;49.864;8.550;2023-08-20T01:58:20;12.50;;;8.10;;
10088;SDS011;51898;49.864;8.550;2023-08-20T02:01:22;12.27;;;8.20;;
10088;SDS011;51898;49.864;8.550;2023-08-20T02:04:24;9.37;;;8.37;;
10088;SDS011;51898;49.864;8.550;2023-08-20T02:07:26;8.60;;;7.53;;
10088;SDS011;51898;49.864;8.550;2023-08-20T02:10:27;9.03;;;8.13;;
10088;SDS011;51898;49.864;8.550;2023-08-20T02:13:29;11.03;;;8.30;;
10088;SDS011;51898;49.864;8.550;2023-08-20T02:16:31;8.33;;;7.40;;
10088;SDS011;51898;49.864;8.550;2023-08-20T02:19:33;9.93;;;8.57;;
10088;SDS011;51898;49.864;8.550;2023-08-20T02:22:35;9.17;;;8.17;;
10088;SDS011;51898;49.864;8.550;2023-08-20T02:25:37;9.70;;;7.97;;
10088;SDS011;51898;49.864;8.550;2023-08-20T02:28:39;9.40;;;8.40;;
10088;SDS011;51898;49.864;8.550;2023-08-20T02:31:41;10.63;;;8.50;;
10088;SDS011;51898;49.864;8.550;2023-08-20T02:34:43;9.70;;;8.80;;
10088;SDS011;51898;49.864;8.550;2023-08-20T02:37:45;13.90;;;10.10;;
10088;SDS011;51898;49.864;8.550;2023-08-20T02:40:46;14.80;;;10.37;;
10088;SDS011;51898;49.864;8.550;2023-08-20T02:43:48;14.13;;;9.33;;
10088;SDS011;51898;49.864;8.550;2023-08-20T02:46:50;21.13;;;9.83;;
10088;SDS011;51898;49.864;8.550;2023-08-20T02:49:52;11.90;;;9.00;;
10088;SDS011;51898;49.864;8.550;2023-08-20T02:52:54;9.87;;;8.53;;
10088;SDS011;51898;49.864;8.550;2023-08-20T02:55:56;13.07;;;10.37;;
10088;SDS011;51898;49.864;8.550;2023-08-20T02:58:58;10.40;;;9.30;;
10088;SDS011;51898;49.864;8.550;2023-08-20T03:01:59;10.40;;;8.50;;
10088;SDS011;51898;49.864;8.550;2023-08-20T03:05:01;13.37;;;9.90;;
10088;SDS011;51898;49.864;8.550;2023-08-20T03:08:04;13.50;;;9.33;;
10088;SDS011;51898;49.864;8.550;2023-08-20T03:11:06;13.90;;;10.17;;
10088;SDS011;51898;49.864;8.550;2023-08-20T03:14:08;15.07;;;9.43;;
10088;SDS011;51898;49.864;8.550;2023-08-20T03:17:09;12.10;;;9.87;;
10088;SDS011;51898;49.864;8.550;2023-08-20T03:20:11;13.60;;;9.93;;
10088;SDS011;51898;49.864;8.550;2023-08-20T03:23:13;10.27;;;8.67;;
10088;SDS011;51898;49.864;8.550;2023-08-20T03:26:14;11.90;;;9.17;;
10088;SDS011;51898;49.864;8.550;2023-08-20T03:29:16;14.33;;;10.67;;
10088;SDS011;51898;49.864;8.550;2023-08-20T03:32:18;12.73;;;10.53;;
10088;SDS011;51898;49.864;8.550;2023-08-20T03:35:20;13.10;;;9.37;;
10088;SDS011;51898;49.864;8.550;2023-08-20T03:38:21;13.10;;;9.13;;
10088;SDS011;51898;49.864;8.550;2023-08-20T03:41:23;10.73;;;9.37;;
10088;SDS011;51898;49.864;8.550;2023-08-20T03:44:25;11.13;;;9.20;;
10088;SDS011;51898;49.864;8.550;2023-08-20T03:47:27;16.30;;;10.17;;
10088;SDS011;51898;49.864;8.550;2023-08-20T03:50:28;12.67;;;10.60;;
10088;SDS011;51898;49.864;8.550;2023-08-20T03:53:30;11.83;;;9.93;;
10088;SDS011;51898;49.864;8.550;2023-08-20T03:56:32;15.83;;;10.97;;
10088;SDS011;51898;49.864;8.550;2023-08-20T03:59:33;13.03;;;10.80;;
10088;SDS011;51898;49.864;8.550;2023-08-20T04:02:35;11.60;;;10.40;;
10088;SDS011;51898;49.864;8.550;2023-08-20T04:05:37;11.17;;;10.07;;
10088;SDS011;51898;49.864;8.550;2023-08-20T04:08:39;12.23;;;10.77;;
10088;SDS011;51898;49.864;8.550;2023-08-20T04:11:41;12.63;;;10.00;;
10088;SDS011;51898;49.864;8.550;2023-08-20T04:14:43;13.20;;;10.77;;
10088;SDS011;51898;49.864;8.550;2023-08-20T04:17:45;13.13;;;10.80;;
10088;SDS011;51898;49.864;8.550;2023-08-20T04:20:47;10.60;;;9.50;;
10088;SDS011;51898;49.864;8.550;2023-08-20T04:23:51;14.80;;;10.13;;
10088;SDS011;51898;49.864;8.550;2023-08-20T04:26:53;11.77;;;9.87;;
10088;SDS011;51898;49.864;8.550;2023-08-20T04:29:55;12.63;;;10.20;;
10088;SDS011;51898;49.864;8.550;2023-08-20T04:32:57;14.37;;;10.27;;
10088;SDS011;51898;49.864;8.550;2023-08-20T04:35:59;13.57;;;9.97;;
10088;SDS011;51898;49.864;8.550;2023-08-20T04:39:01;14.33;;;9.40;;
10088;SDS011;51898;49.864;8.550;2023-08-20T04:42:03;14.70;;;10.20;;
10088;SDS011;51898;49.864;8.550;2023-08-20T04:45:05;14.27;;;9.87;;
10088;SDS011;51898;49.864;8.550;2023-08-20T04:48:08;13.80;;;9.17;;
10088;SDS011;51898;49.864;8.550;2023-08-20T04:51:10;14.70;;;10.53;;
10088;SDS011;51898;49.864;8.550;2023-08-20T04:54:11;18.47;;;10.57;;
10088;SDS011;51898;49.864;8.550;2023-08-20T04:57:13;13.37;;;9.67;;
10088;SDS011;51898;49.864;8.550;2023-08-20T05:00:15;11.50;;;10.20;;
10088;SDS011;51898;49.864;8.550;2023-08-20T05:03:17;14.23;;;10.37;;
10088;SDS011;51898;49.864;8.550;2023-08-20T05:06:19;14.23;;;10.30;;
10088;SDS011;51898;49.864;8.550;2023-08-20T05:09:21;14.30;;;9.87;;
10088;SDS011;51898;49.864;8.550;2023-08-20T05:12:23;13.25;;;10.45;;
10088;SDS011;51898;49.864;8.550;2023-08-20T05:15:27;12.33;;;10.10;;
10088;SDS011;51898;49.864;8.550;2023-08-20T05:18:28;13.03;;;9.23;;
10088;SDS011;51898;49.864;8.550;2023-08-20T05:21:30;12.20;;;9.73;;
10088;SDS011;51898;49.864;8.550;2023-08-20T05:24:32;11.17;;;8.97;;
10088;SDS011;51898;49.864;8.550;2023-08-20T05:27:34;13.27;;;9.93;;
10088;SDS011;51898;49.864;8.550;2023-08-20T05:30:38;15.43;;;10.33;;
10088;SDS011;51898;49.864;8.550;2023-08-20T05:33:40;14.87;;;9.97;;
10088;SDS011;51898;49.864;8.550;2023-08-20T05:36:42;11.53;;;9.37;;
10088;SDS011;51898;49.864;8.550;2023-08-20T05:39:44;10.93;;;9.60;;
10088;SDS011;51898;49.864;8.550;2023-08-20T05:42:46;12.90;;;9.80;;
10088;SDS011;51898;49.864;8.550;2023-08-20T05:45:50;10.73;;;9.63;;
10088;SDS011;51898;49.864;8.550;2023-08-20T05:48:52;10.50;;;9.50;;
10088;SDS011;51898;49.864;8.550;2023-08-20T05:51:54;10.80;;;8.83;;
10088;SDS011;51898;49.864;8.550;2023-08-20T05:54:55;13.70;;;9.10;;
10088;SDS011;51898;49.864;8.550;2023-08-20T05:57:57;11.23;;;9.10;;
10088;SDS011;51898;49.864;8.550;2023-08-20T06:00:59;10.03;;;8.60;;
10088;SDS011;51898;49.864;8.550;2023-08-20T06:04:00;12.57;;;9.98;;
10088;SDS011;51898;49.864;8.550;2023-08-20T06:07:02;13.70;;;9.13;;
10088;SDS011;51898;49.864;8.550;2023-08-20T06:10:04;12.37;;;9.40;;
10088;SDS011;51898;49.864;8.550;2023-08-20T06:13:07;14.77;;;10.00;;
10088;SDS011;51898;49.864;8.550;2023-08-20T06:16:08;12.63;;;8.83;;
10088;SDS011;51898;49.864;8.550;2023-08-20T06:19:15;11.67;;;9.87;;
10088;SDS011;51898;49.864;8.550;2023-08-20T06:22:17;9.70;;;8.23;;
10088;SDS011;51898;49.864;8.550;2023-08-20T06:25:18;12.00;;;9.50;;
10088;SDS011;51898;49.864;8.550;2023-08-20T06:28:20;11.10;;;9.67;;
10088;SDS011;51898;49.864;8.550;2023-08-20T06:31:22;10.53;;;9.53;;
10088;SDS011;51898;49.864;8.550;2023-08-20T06:34:24;10.00;;;9.00;;
10088;SDS011;51898;49.864;8.550;2023-08-20T06:37:26;10.97;;;9.50;;
10088;SDS011;51898;49.864;8.550;2023-08-20T06:40:28;12.00;;;10.40;;
10088;SDS011;51898;49.864;8.550;2023-08-20T06:43:29;11.10;;;9.67;;
10088;SDS011;51898;49.864;8.550;2023-08-20T06:46:31;12.53;;;10.50;;
10088;SDS011;51898;49.864;8.550;2023-08-20T06:49:33;11.80;;;10.60;;
10088;SDS011;51898;49.864;8.550;2023-08-20T06:52:35;12.13;;;9.93;;
10088;SDS011;51898;49.864;8.550;2023-08-20T06:55:36;12.83;;;11.40;;
10088;SDS011;51898;49.864;8.550;2023-08-20T06:58:39;13.60;;;10.83;;
10088;SDS011;51898;49.864;8.550;2023-08-20T07:01:41;13.60;;;10.30;;
10088;SDS011;51898;49.864;8.550;2023-08-20T07:04:43;11.77;;;10.13;;
10088;SDS011;51898;49.864;8.550;2023-08-20T07:07:45;13.30;;;10.20;;
10088;SDS011;51898;49.864;8.550;2023-08-20T07:10:47;14.03;;;10.80;;
10088;SDS011;51898;49.864;8.550;2023-08-20T07:13:49;12.43;;;9.57;;
10088;SDS011;51898;49.864;8.550;2023-08-20T07:16:50;11.03;;;9.90;;
10088;SDS011;51898;49.864;8.550;2023-08-20T07:19:52;12.77;;;10.20;;
10088;SDS011;51898;49.864;8.550;2023-08-20T07:22:54;13.23;;;9.90;;
10088;SDS011;51898;49.864;8.550;2023-08-20T07:26:08;13.03;;;10.20;;
10088;SDS011;51898;49.864;8.550;2023-08-20T07:29:13;13.03;;;10.80;;
10088;SDS011;51898;49.864;8.550;2023-08-20T07:32:15;13.60;;;10.60;;
10088;SDS011;51898;49.864;8.550;2023-08-20T07:35:16;10.33;;;9.37;;
10088;SDS011;51898;49.864;8.550;2023-08-20T07:38:18;12.77;;;10.30;;
10088;SDS011;51898;49.864;8.550;2023-08-20T07:41:20;11.40;;;10.23;;
10088;SDS011;51898;49.864;8.550;2023-08-20T07:44:22;11.57;;;10.00;;
10088;SDS011;51898;49.864;8.550;2023-08-20T07:47:24;11.50;;;10.40;;
10088;SDS011;51898;49.864;8.550;2023-08-20T07:50:25;14.50;;;10.10;;
10088;SDS011;51898;49.864;8.550;2023-08-20T07:53:27;11.37;;;10.13;;
10088;SDS011;51898;49.864;8.550;2023-08-20T07:56:29;11.43;;;10.33;;
10088;SDS011;51898;49.864;8.550;2023-08-20T07:59:31;11.10;;;9.90;;
10088;SDS011;51898;49.864;8.550;2023-08-20T08:02:33;11.70;;;10.50;;
10088;SDS011;51898;49.864;8.550;2023-08-20T08:05:34;15.43;;;10.23;;
10088;SDS011;51898;49.864;8.550;2023-08-20T08:08:37;11.27;;;10.17;;
10088;SDS011;51898;49.864;8.550;2023-08-20T08:11:43;10.80;;;9.80;;
10088;SDS011;51898;49.864;8.550;2023-08-20T08:14:44;10.83;;;9.73;;
10088;SDS011;51898;49.864;8.550;2023-08-20T08:17:46;12.90;;;9.73;;
10088;SDS011;51898;49.864;8.550;2023-08-20T08:20:48;11.03;;;9.90;;
10088;SDS011;51898;49.864;8.550;2023-08-20T08:23:50;11.80;;;10.27;;
10088;SDS011;51898;49.864;8.550;2023-08-20T08:26:52;10.53;;;9.33;;
10088;SDS011;51898;49.864;8.550;2023-08-20T08:29:53;10.53;;;9.60;;
10088;SDS011;51898;49.864;8.550;2023-08-20T08:32:55;10.73;;;9.60;;
10088;SDS011;51898;49.864;8.550;2023-08-20T08:35:57;11.33;;;10.23;;
10088;SDS011;51898;49.864;8.550;2023-08-20T08:38:59;12.10;;;9.67;;
10088;SDS011;51898;49.864;8.550;2023-08-20T08:42:01;13.20;;;10.50;;
10088;SDS011;51898;49.864;8.550;2023-08-20T08:45:05;13.97;;;9.47;;
10088;SDS011;51898;49.864;8.550;2023-08-20T08:48:08;9.80;;;8.90;;
10088;SDS011;51898;49.864;8.550;2023-08-20T08:51:13;9.20;;;8.30;;
10088;SDS011;51898;49.864;8.550;2023-08-20T08:54:15;9.13;;;8.33;;
10088;SDS011;51898;49.864;8.550;2023-08-20T08:57:18;10.30;;;8.37;;
10088;SDS011;51898;49.864;8.550;2023-08-20T09:00:20;11.53;;;9.07;;
10088;SDS011;51898;49.864;8.550;2023-08-20T09:03:22;10.90;;;9.57;;
10088;SDS011;51898;49.864;8.550;2023-08-20T09:06:25;10.10;;;9.20;;
10088;SDS011;51898;49.864;8.550;2023-08-20T09:09:28;10.30;;;9.20;;
10088;SDS011;51898;49.864;8.550;2023-08-20T09:12:30;10.50;;;8.90;;
10088;SDS011;51898;49.864;8.550;2023-08-20T09:15:35;10.80;;;9.70;;
10088;SDS011;51898;49.864;8.550;2023-08-20T09:18:41;10.97;;;9.40;;
10088;SDS011;51898;49.864;8.550;2023-08-20T09:21:48;10.67;;;8.50;;
10088;SDS011;51898;49.864;8.550;2023-08-20T09:24:54;12.37;;;9.70;;
10088;SDS011;51898;49.864;8.550;2023-08-20T09:27:57;12.10;;;9.37;;
10088;SDS011;51898;49.864;8.550;2023-08-20T09:31:05;10.60;;;9.13;;
10088;SDS011;51898;49.864;8.550;2023-08-20T09:34:11;10.10;;;9.00;;
10088;SDS011;51898;49.864;8.550;2023-08-20T09:37:14;9.30;;;8.50;;
10088;SDS011;51898;49.864;8.550;2023-08-20T09:40:17;8.40;;;7.63;;
10088;SDS011;51898;49.864;8.550;2023-08-20T09:43:19;9.60;;;8.33;;
10088;SDS011;51898;49.864;8.550;2023-08-20T09:46:21;9.00;;;8.10;;
10088;SDS011;51898;49.864;8.550;2023-08-20T09:49:26;10.50;;;9.02;;
10088;SDS011;51898;49.864;8.550;2023-08-20T09:52:34;9.48;;;7.68;;
10088;SDS011;51898;49.864;8.550;2023-08-20T09:55:45;10.38;;;8.80;;
10088;SDS011;51898;49.864;8.550;2023-08-20T09:58:49;10.52;;;8.32;;
10088;SDS011;51898;49.864;8.550;2023-08-20T10:01:51;8.35;;;7.57;;
10088;SDS011;51898;49.864;8.550;2023-08-20T10:04:54;8.38;;;7.57;;
10088;SDS011;51898;49.864;8.550;2023-08-20T10:07:57;8.93;;;8.00;;
10088;SDS011;51898;49.864;8.550;2023-08-20T10:11:00;7.50;;;6.80;;
10088;SDS011;51898;49.864;8.550;2023-08-20T10:14:04;8.13;;;7.32;;
10088;SDS011;51898;49.864;8.550;2023-08-20T10:17:09;7.80;;;7.10;;
10088;SDS011;51898;49.864;8.550;2023-08-20T10:20:13;10.65;;;7.35;;
10088;SDS011;51898;49.864;8.550;2023-08-20T10:23:19;7.80;;;7.00;;
10088;SDS011;51898;49.864;8.550;2023-08-20T10:26:24;11.55;;;7.78;;
10088;SDS011;51898;49.864;8.550;2023-08-20T10:29:41;9.00;;;7.57;;
10088;SDS011;51898;49.864;8.550;2023-08-20T10:32:47;9.18;;;7.80;;
10088;SDS011;51898;49.864;8.550;2023-08-20T10:35:53;7.82;;;7.00;;
10088;SDS011;51898;49.864;8.550;2023-08-20T10:38:55;7.55;;;6.50;;
10088;SDS011;51898;49.864;8.550;2023-08-20T10:42:21;9.13;;;7.70;;
10088;SDS011;51898;49.864;8.550;2023-08-20T10:45:24;8.40;;;6.82;;
10088;SDS011;51898;49.864;8.550;2023-08-20T10:48:26;8.13;;;7.32;;
10088;SDS011;51898;49.864;8.550;2023-08-20T10:51:28;7.70;;;6.90;;
10088;SDS011;51898;49.864;8.550;2023-08-20T10:54:33;7.45;;;6.85;;
10088;SDS011;51898;49.864;8.550;2023-08-20T10:57:35;7.82;;;7.22;;
10088;SDS011;51898;49.864;8.550;2023-08-20T11:00:38;9.63;;;7.03;;
10088;SDS011;51898;49.864;8.550;2023-08-20T11:03:42;7.00;;;6.40;;
10088;SDS011;51898;49.864;8.550;2023-08-20T11:06:52;8.32;;;6.80;;
10088;SDS011;51898;49.864;8.550;2023-08-20T11:09:55;6.97;;;6.32;;
10088;SDS011;51898;49.864;8.550;2023-08-20T11:12:58;9.18;;;6.72;;
10088;SDS011;51898;49.864;8.550;2023-08-20T11:16:07;9.30;;;7.20;;
10088;SDS011;51898;49.864;8.550;2023-08-20T11:19:09;6.30;;;5.72;;
10088;SDS011;51898;49.864;8.550;2023-08-20T11:22:11;7.80;;;6.43;;
10088;SDS011;51898;49.864;8.550;2023-08-20T11:25:14;6.72;;;6.03;;
10088;SDS011;51898;49.864;8.550;2023-08-20T11:28:16;7.55;;;6.53;;
10088;SDS011;51898;49.864;8.550;2023-08-20T11:31:19;8.35;;;6.90;;
10088;SDS011;51898;49.864;8.550;2023-08-20T11:34:21;7.05;;;6.35;;
10088;SDS011;51898;49.864;8.550;2023-08-20T11:37:22;7.40;;;6.50;;
10088;SDS011;51898;49.864;8.550;2023-08-20T11:40:24;6.75;;;6.25;;
10088;SDS011;51898;49.864;8.550;2023-08-20T11:43:29;6.95;;;6.35;;
10088;SDS011;51898;49.864;8.550;2023-08-20T11:46:31;7.07;;;6.38;;
10088;SDS011;51898;49.864;8.550;2023-08-20T11:49:33;6.63;;;6.13;;
10088;SDS011;51898;49.864;8.550;2023-08-20T11:52:35;7.28;;;6.57;;
10088;SDS011;51898;49.864;8.550;2023-08-20T11:55:38;10.43;;;6.22;;
10088;SDS011;51898;49.864;8.550;2023-08-20T11:58:42;7.40;;;6.45;;
10088;SDS011;51898;49.864;8.550;2023-08-20T12:01:50;7.32;;;6.72;;
10088;SDS011;51898;49.864;8.550;2023-08-20T12:04:54;6.90;;;6.18;;
10088;SDS011;51898;49.864;8.550;2023-08-20T12:07:57;7.07;;;6.47;;
10088;SDS011;51898;49.864;8.550;2023-08-20T12:11:02;7.25;;;6.65;;
10088;SDS011;51898;49.864;8.550;2023-08-20T12:14:04;7.63;;;6.40;;
10088;SDS011;51898;49.864;8.550;2023-08-20T12:17:06;9.23;;;6.20;;
10088;SDS011;51898;49.864;8.550;2023-08-20T12:20:09;7.57;;;6.10;;
10088;SDS011;51898;49.864;8.550;2023-08-20T12:23:14;6.70;;;6.05;;
10088;SDS011;51898;49.864;8.550;2023-08-20T12:26:18;5.63;;;5.22;;
10088;SDS011;51898;49.864;8.550;2023-08-20T12:29:20;7.30;;;6.20;;
10088;SDS011;51898;49.864;8.550;2023-08-20T12:32:21;6.65;;;6.13;;
10088;SDS011;51898;49.864;8.550;2023-08-20T12:35:23;6.72;;;6.03;;
10088;SDS011;51898;49.864;8.550;2023-08-20T12:38:25;8.43;;;6.30;;
10088;SDS011;51898;49.864;8.550;2023-08-20T12:41:27;6.43;;;5.82;;
10088;SDS011;51898;49.864;8.550;2023-08-20T12:44:28;6.68;;;6.03;;
10088;SDS011;51898;49.864;8.550;2023-08-20T12:47:30;5.65;;;5.15;;
10088;SDS011;51898;49.864;8.550;2023-08-20T12:50:32;6.28;;;5.78;;
10088;SDS011;51898;49.864;8.550;2023-08-20T12:53:34;6.20;;;5.57;;
10088;SDS011;51898;49.864;8.550;2023-08-20T12:56:39;6.88;;;5.65;;
10088;SDS011;51898;49.864;8.550;2023-08-20T12:59:41;6.28;;;5.60;;
10088;SDS011;51898;49.864;8.550;2023-08-20T13:02:43;6.43;;;5.60;;
10088;SDS011;51898;49.864;8.550;2023-08-20T13:05:45;7.40;;;5.75;;
10088;SDS011;51898;49.864;8.550;2023-08-20T13:08:48;9.13;;;5.38;;
10088;SDS011;51898;49.864;8.550;2023-08-20T13:11:49;6.10;;;5.18;;
10088;SDS011;51898;49.864;8.550;2023-08-20T13:14:54;5.10;;;4.68;;
10088;SDS011;51898;49.864;8.550;2023-08-20T13:17:56;5.50;;;5.10;;
10088;SDS011;51898;49.864;8.550;2023-08-20T13:20:58;7.20;;;5.68;;
10088;SDS011;51898;49.864;8.550;2023-08-20T13:24:00;6.13;;;5.38;;
10088;SDS011;51898;49.864;8.550;2023-08-20T13:27:02;5.90;;;5.50;;
10088;SDS011;51898;49.864;8.550;2023-08-20T13:30:04;6.47;;;5.25;;
10088;SDS011;51898;49.864;8.550;2023-08-20T13:33:06;6.05;;;5.45;;
10088;SDS011;51898;49.864;8.550;2023-08-20T13:36:08;6.03;;;5.53;;
10088;SDS011;51898;49.864;8.550;2023-08-20T13:39:10;7.32;;;5.30;;
10088;SDS011;51898;49.864;8.550;2023-08-20T13:42:14;6.07;;;5.57;;
10088;SDS011;51898;49.864;8.550;2023-08-20T13:45:17;6.68;;;6.10;;
10088;SDS011;51898;49.864;8.550;2023-08-20T13:48:18;9.05;;;6.03;;
10088;SDS011;51898;49.864;8.550;2023-08-20T13:51:20;6.43;;;5.82;;
10088;SDS011;51898;49.864;8.550;2023-08-20T13:54:22;5.85;;;5.45;;
10088;SDS011;51898;49.864;8.550;2023-08-20T13:57:23;6.15;;;5.60;;
10088;SDS011;51898;49.864;8.550;2023-08-20T14:00:25;6.78;;;6.18;;
10088;SDS011;51898;49.864;8.550;2023-08-20T14:03:27;6.55;;;5.90;;
10088;SDS011;51898;49.864;8.550;2023-08-20T14:06:29;5.88;;;5.38;;
10088;SDS011;51898;49.864;8.550;2023-08-20T14:09:31;6.70;;;6.07;;
10088;SDS011;51898;49.864;8.550;2023-08-20T14:12:35;9.25;;;5.88;;
10088;SDS011;51898;49.864;8.550;2023-08-20T14:15:41;7.10;;;5.88;;
10088;SDS011;51898;49.864;8.550;2023-08-20T14:18:42;6.18;;;5.60;;
10088;SDS011;51898;49.864;8.550;2023-08-20T14:21:44;6.72;;;6.07;;
10088;SDS011;51898;49.864;8.550;2023-08-20T14:24:46;6.75;;;5.80;;
10088;SDS011;51898;49.864;8.550;2023-08-20T14:27:48;5.95;;;5.45;;
10088;SDS011;51898;49.864;8.550;2023-08-20T14:30:49;7.40;;;5.50;;
10088;SDS011;51898;49.864;8.550;2023-08-20T14:33:54;6.20;;;5.70;;
10088;SDS011;51898;49.864;8.550;2023-08-20T14:36:56;7.43;;;5.78;;
10088;SDS011;51898;49.864;8.550;2023-08-20T14:39:57;6.18;;;5.68;;
10088;SDS011;51898;49.864;8.550;2023-08-20T14:42:59;6.53;;;6.03;;
10088;SDS011;51898;49.864;8.550;2023-08-20T14:46:01;9.48;;;5.78;;
10088;SDS011;51898;49.864;8.550;2023-08-20T14:49:03;5.60;;;5.20;;
10088;SDS011;51898;49.864;8.550;2023-08-20T14:52:05;11.10;;;10.02;;
10088;SDS011;51898;49.864;8.550;2023-08-20T14:55:27;6.20;;;5.65;;
10088;SDS011;51898;49.864;8.550;2023-08-20T14:58:29;10.07;;;5.70;;
10088;SDS011;51898;49.864;8.550;2023-08-20T15:01:33;7.03;;;6.03;;
10088;SDS011;51898;49.864;8.550;2023-08-20T15:04:35;8.02;;;7.00;;
10088;SDS011;51898;49.864;8.550;2023-08-20T15:07:36;6.53;;;6.03;;
10088;SDS011;51898;49.864;8.550;2023-08-20T15:10:39;7.25;;;6.47;;
10088;SDS011;51898;49.864;8.550;2023-08-20T15:13:41;6.32;;;5.82;;
10088;SDS011;51898;49.864;8.550;2023-08-20T15:16:42;6.18;;;5.53;;
10088;SDS011;51898;49.864;8.550;2023-08-20T15:19:44;7.22;;;6.05;;
10088;SDS011;51898;49.864;8.550;2023-08-20T15:22:46;5.80;;;5.40;;
10088;SDS011;51898;49.864;8.550;2023-08-20T15:25:48;6.50;;;5.90;;
10088;SDS011;51898;49.864;8.550;2023-08-20T15:28:49;6.95;;;6.25;;
10088;SDS011;51898;49.864;8.550;2023-08-20T15:31:51;8.15;;;5.35;;
10088;SDS011;51898;49.864;8.550;2023-08-20T15:34:53;6.35;;;5.60;;
10088;SDS011;51898;49.864;8.550;2023-08-20T15:37:55;6.03;;;5.53;;
10088;SDS011;51898;49.864;8.550;2023-08-20T15:40:56;5.95;;;5.30;;
10088;SDS011;51898;49.864;8.550;2023-08-20T15:44:00;5.45;;;5.05;;
10088;SDS011;51898;49.864;8.550;2023-08-20T15:47:02;5.97;;;5.38;;
10088;SDS011;51898;49.864;8.550;2023-08-20T15:50:04;5.25;;;4.75;;
10088;SDS011;51898;49.864;8.550;2023-08-20T15:53:06;6.20;;;5.15;;
10088;SDS011;51898;49.864;8.550;2023-08-20T15:56:08;5.18;;;4.72;;
10088;SDS011;51898;49.864;8.550;2023-08-20T15:59:10;5.57;;;5.00;;
10088;SDS011;51898;49.864;8.550;2023-08-20T16:02:12;9.10;;;7.65;;
10088;SDS011;51898;49.864;8.550;2023-08-20T16:05:13;5.57;;;5.00;;
10088;SDS011;51898;49.864;8.550;2023-08-20T16:08:15;5.28;;;4.82;;
10088;SDS011;51898;49.864;8.550;2023-08-20T16:11:17;6.95;;;5.20;;
10088;SDS011;51898;49.864;8.550;2023-08-20T16:14:19;5.43;;;4.90;;
10088;SDS011;51898;49.864;8.550;2023-08-20T16:17:21;6.97;;;5.50;;
10088;SDS011;51898;49.864;8.550;2023-08-20T16:20:23;5.20;;;4.82;;
10088;SDS011;51898;49.864;8.550;2023-08-20T16:23:24;5.35;;;4.70;;
10088;SDS011;51898;49.864;8.550;2023-08-20T16:26:26;5.65;;;5.25;;
10088;SDS011;51898;49.864;8.550;2023-08-20T16:29:28;6.50;;;5.03;;
10088;SDS011;51898;49.864;8.550;2023-08-20T16:32:30;5.55;;;5.10;;
10088;SDS011;51898;49.864;8.550;2023-08-20T16:35:33;5.82;;;4.88;;
10088;SDS011;51898;49.864;8.550;2023-08-20T16:38:35;4.57;;;4.28;;
10088;SDS011;51898;49.864;8.550;2023-08-20T16:41:36;8.77;;;5.10;;
10088;SDS011;51898;49.864;8.550;2023-08-20T16:44:38;5.13;;;4.63;;
10088;SDS011;51898;49.864;8.550;2023-08-20T16:47:40;6.07;;;5.43;;
10088;SDS011;51898;49.864;8.550;2023-08-20T16:50:42;5.03;;;4.60;;
10088;SDS011;51898;49.864;8.550;2023-08-20T16:53:44;8.10;;;5.30;;
10088;SDS011;51898;49.864;8.550;2023-08-20T16:56:46;5.70;;;5.20;;
10088;SDS011;51898;49.864;8.550;2023-08-20T16:59:48;6.30;;;5.70;;
10088;SDS011;51898;49.864;8.550;2023-08-20T17:02:50;5.80;;;5.25;;
10088;SDS011;51898;49.864;8.550;2023-08-20T17:05:59;6.07;;;5.50;;
10088;SDS011;51898;49.864;8.550;2023-08-20T17:09:05;5.60;;;5.07;;
10088;SDS011;51898;49.864;8.550;2023-08-20T17:12:06;7.15;;;5.18;;
10088;SDS011;51898;49.864;8.550;2023-08-20T17:15:09;6.13;;;5.63;;
10088;SDS011;51898;49.864;8.550;2023-08-20T17:18:11;6.00;;;5.50;;
10088;SDS011;51898;49.864;8.550;2023-08-20T17:21:16;5.70;;;5.30;;
10088;SDS011;51898;49.864;8.550;2023-08-20T17:24:18;6.07;;;5.57;;
10088;SDS011;51898;49.864;8.550;2023-08-20T17:27:19;6.18;;;5.57;;
10088;SDS011;51898;49.864;8.550;2023-08-20T17:30:21;5.90;;;5.40;;
10088;SDS011;51898;49.864;8.550;2023-08-20T17:33:23;6.05;;;5.53;;
10088;SDS011;51898;49.864;8.550;2023-08-20T17:36:25;5.47;;;4.97;;
10088;SDS011;51898;49.864;8.550;2023-08-20T17:39:27;5.97;;;5.47;;
10088;SDS011;51898;49.864;8.550;2023-08-20T17:42:29;6.97;;;5.70;;
10088;SDS011;51898;49.864;8.550;2023-08-20T17:45:30;6.25;;;5.68;;
10088;SDS011;51898;49.864;8.550;2023-08-20T17:48:35;8.45;;;7.70;;
10088;SDS011;51898;49.864;8.550;2023-08-20T17:51:36;13.10;;;6.57;;
10088;SDS011;51898;49.864;8.550;2023-08-20T17:54:38;12.48;;;6.53;;
10088;SDS011;51898;49.864;8.550;2023-08-20T17:57:40;6.65;;;6.05;;
10088;SDS011;51898;49.864;8.550;2023-08-20T18:00:45;10.90;;;6.53;;
10088;SDS011;51898;49.864;8.550;2023-08-20T18:03:47;5.95;;;5.53;;
10088;SDS011;51898;49.864;8.550;2023-08-20T18:06:48;8.82;;;6.50;;
10088;SDS011;51898;49.864;8.550;2023-08-20T18:09:50;10.20;;;5.95;;
10088;SDS011;51898;49.864;8.550;2023-08-20T18:12:52;7.57;;;5.68;;
10088;SDS011;51898;49.864;8.550;2023-08-20T18:15:53;6.85;;;6.15;;
10088;SDS011;51898;49.864;8.550;2023-08-20T18:18:55;7.15;;;5.65;;